createdAt,value
2017-12-12T00:01:03.987Z,0
2017-12-12T00:02:25.418Z,0
2017-12-12T00:03:46.557Z,0
2017-12-12T00:05:08.264Z,0
2017-12-12T00:06:29.230Z,0
2017-12-12T00:07:51.585Z,0
2017-12-12T00:09:13.011Z,0
2017-12-12T00:10:35.016Z,0
2017-12-12T00:11:57.026Z,0
2017-12-12T00:13:18.434Z,0
2017-12-12T00:14:40.666Z,0
2017-12-12T00:16:02.367Z,0
2017-12-12T00:17:24.347Z,0
2017-12-12T00:18:46.314Z,0
2017-12-12T00:20:07.749Z,0
2017-12-12T00:21:29.439Z,0
2017-12-12T00:22:51.205Z,0
2017-12-12T00:24:13.003Z,0
2017-12-12T00:25:34.435Z,0
2017-12-12T00:26:56.675Z,0
2017-12-12T00:28:18.382Z,0
2017-12-12T00:29:40.064Z,0
2017-12-12T00:31:01.755Z,0
2017-12-12T00:32:23.503Z,0
2017-12-12T00:33:45.730Z,0
2017-12-12T00:35:07.660Z,0
2017-12-12T00:36:29.074Z,0
2017-12-12T00:37:50.777Z,0
2017-12-12T00:39:12.754Z,0
2017-12-12T00:40:34.452Z,0
2017-12-12T00:41:56.479Z,0
2017-12-12T00:43:18.492Z,0
2017-12-12T00:44:40.240Z,0
2017-12-12T00:46:01.658Z,0
2017-12-12T00:47:22.841Z,0
2017-12-12T00:48:44.523Z,0
2017-12-12T00:50:06.216Z,0
2017-12-12T00:51:28.017Z,0
2017-12-12T00:52:49.977Z,0
2017-12-12T00:54:11.404Z,0
2017-12-12T00:55:33.753Z,0
2017-12-12T00:56:55.492Z,0
2017-12-12T00:58:17.196Z,0
2017-12-12T00:59:39.414Z,0
2017-12-12T01:01:01.663Z,0
2017-12-12T01:02:23.658Z,0
2017-12-12T01:03:45.607Z,0
2017-12-12T01:05:07.586Z,0
2017-12-12T01:06:29.014Z,0
2017-12-12T01:07:51.439Z,0
2017-12-12T01:09:13.237Z,0
2017-12-12T01:10:35.538Z,0
2017-12-12T01:11:57.299Z,0
2017-12-12T01:13:19.656Z,0
2017-12-12T01:14:41.715Z,0
2017-12-12T01:16:03.968Z,0
2017-12-12T01:17:25.662Z,0
2017-12-12T01:18:47.361Z,0
2017-12-12T01:20:09.370Z,0
2017-12-12T01:21:30.787Z,0
2017-12-12T01:22:52.730Z,0
2017-12-12T01:24:14.145Z,0
2017-12-12T01:25:36.362Z,0
2017-12-12T01:26:58.056Z,0
2017-12-12T01:28:19.783Z,0
2017-12-12T01:29:41.625Z,0
2017-12-12T01:31:03.855Z,0
2017-12-12T01:32:25.872Z,0
2017-12-12T01:33:47.854Z,0
2017-12-12T01:35:09.281Z,0
2017-12-12T01:36:31.255Z,0
2017-12-12T01:37:52.427Z,0
2017-12-12T01:39:14.237Z,0
2017-12-12T01:40:36.231Z,0
2017-12-12T01:41:58.229Z,0
2017-12-12T01:43:20.149Z,0
2017-12-12T01:44:41.835Z,0
2017-12-12T01:46:04.074Z,0
2017-12-12T01:47:25.484Z,0
2017-12-12T01:48:47.267Z,0
2017-12-12T01:50:09.299Z,0
2017-12-12T01:51:31.313Z,0
2017-12-12T01:52:53.116Z,0
2017-12-12T01:54:15.475Z,0
2017-12-12T01:55:37.541Z,0
2017-12-12T01:56:58.948Z,0
2017-12-12T01:58:20.437Z,0
2017-12-12T01:59:42.027Z,0
2017-12-12T02:01:03.820Z,0
2017-12-12T02:02:25.545Z,0
2017-12-12T02:03:46.969Z,0
2017-12-12T02:05:08.939Z,0
2017-12-12T02:06:30.216Z,0
2017-12-12T02:07:51.947Z,0
2017-12-12T02:09:14.259Z,0
2017-12-12T02:10:36.236Z,0
2017-12-12T02:11:58.205Z,0
2017-12-12T02:13:20.494Z,0
2017-12-12T02:14:41.658Z,0
2017-12-12T02:16:03.137Z,0
2017-12-12T02:17:24.564Z,0
2017-12-12T02:18:46.585Z,0
2017-12-12T02:20:08.288Z,0
2017-12-12T02:21:29.725Z,0
2017-12-12T02:22:51.405Z,0
2017-12-12T02:24:13.093Z,0
2017-12-12T02:25:34.567Z,0
2017-12-12T02:26:56.617Z,0
2017-12-12T02:28:18.038Z,0
2017-12-12T02:29:39.996Z,0
2017-12-12T02:31:01.717Z,0
2017-12-12T02:32:23.398Z,0
2017-12-12T02:33:45.368Z,0
2017-12-12T02:35:06.798Z,0
2017-12-12T02:36:27.953Z,0
2017-12-12T02:37:49.094Z,0
2017-12-12T02:39:10.535Z,0
2017-12-12T02:40:32.641Z,0
2017-12-12T02:41:54.936Z,0
2017-12-12T02:43:16.643Z,0
2017-12-12T02:44:38.135Z,0
2017-12-12T02:46:00.137Z,0
2017-12-12T02:47:21.348Z,0
2017-12-12T02:48:43.276Z,0
2017-12-12T02:50:05.246Z,0
2017-12-12T02:51:27.502Z,0
2017-12-12T02:52:48.456Z,0
2017-12-12T02:54:10.157Z,0
2017-12-12T02:55:31.587Z,0
2017-12-12T02:56:53.316Z,0
2017-12-12T02:58:15.025Z,0
2017-12-12T02:59:36.449Z,0
2017-12-12T03:00:58.704Z,0
2017-12-12T03:02:20.664Z,0
2017-12-12T03:03:42.621Z,0
2017-12-12T03:05:04.581Z,0
2017-12-12T03:06:26.354Z,0
2017-12-12T03:07:47.777Z,0
2017-12-12T03:09:10.059Z,0
2017-12-12T03:10:32.015Z,0
2017-12-12T03:11:54.016Z,0
2017-12-12T03:13:15.431Z,0
2017-12-12T03:14:37.395Z,0
2017-12-12T03:15:59.806Z,0
2017-12-12T03:17:21.895Z,0
2017-12-12T03:18:43.323Z,0
2017-12-12T03:20:04.491Z,0
2017-12-12T03:21:26.284Z,0
2017-12-12T03:22:47.453Z,0
2017-12-12T03:24:09.410Z,0
2017-12-12T03:25:31.684Z,0
2017-12-12T03:26:53.259Z,0
2017-12-12T03:28:15.215Z,0
2017-12-12T03:29:36.945Z,0
2017-12-12T03:30:59.195Z,0
2017-12-12T03:32:21.161Z,0
2017-12-12T03:33:43.385Z,0
2017-12-12T03:35:05.198Z,0
2017-12-12T03:36:27.430Z,0
2017-12-12T03:37:49.114Z,0
2017-12-12T03:39:11.066Z,0
2017-12-12T03:40:33.165Z,0
2017-12-12T03:41:54.871Z,0
2017-12-12T03:43:16.579Z,0
2017-12-12T03:44:38.525Z,0
2017-12-12T03:46:00.267Z,0
2017-12-12T03:47:21.964Z,0
2017-12-12T03:48:43.646Z,0
2017-12-12T03:50:05.078Z,0
2017-12-12T03:51:27.031Z,0
2017-12-12T03:52:48.773Z,0
2017-12-12T03:54:10.474Z,0
2017-12-12T03:55:32.812Z,0
2017-12-12T03:56:54.878Z,0
2017-12-12T03:58:16.058Z,0
2017-12-12T03:59:38.279Z,0
2017-12-12T04:00:59.728Z,0
2017-12-12T04:02:22.025Z,0
2017-12-12T04:03:45.372Z,0
2017-12-12T04:05:07.598Z,0
2017-12-12T04:06:29.300Z,0
2017-12-12T04:07:50.731Z,0
2017-12-12T04:09:12.789Z,0
2017-12-12T04:10:34.308Z,0
2017-12-12T04:11:56.042Z,0
2017-12-12T04:13:18.504Z,0
2017-12-12T04:14:40.529Z,0
2017-12-12T04:16:01.412Z,0
2017-12-12T04:17:23.178Z,0
2017-12-12T04:18:44.363Z,0
2017-12-12T04:20:06.610Z,0
2017-12-12T04:21:28.834Z,0
2017-12-12T04:22:50.535Z,0
2017-12-12T04:24:12.334Z,0
2017-12-12T04:25:33.771Z,0
2017-12-12T04:26:55.456Z,0
2017-12-12T04:28:17.144Z,0
2017-12-12T04:29:38.837Z,0
2017-12-12T04:31:00.628Z,0
2017-12-12T04:32:22.301Z,0
2017-12-12T04:33:44.243Z,0
2017-12-12T04:35:05.677Z,0
2017-12-12T04:36:27.096Z,0
2017-12-12T04:37:48.762Z,0
2017-12-12T04:39:10.935Z,0
2017-12-12T04:40:33.174Z,0
2017-12-12T04:41:54.603Z,0
2017-12-12T04:43:16.044Z,0
2017-12-12T04:44:37.728Z,0
2017-12-12T04:45:59.416Z,0
2017-12-12T04:47:21.096Z,0
2017-12-12T04:48:43.172Z,0
2017-12-12T04:50:05.169Z,0
2017-12-12T04:51:26.854Z,0
2017-12-12T04:52:48.544Z,0
2017-12-12T04:54:10.226Z,0
2017-12-12T04:55:31.924Z,0
2017-12-12T04:56:53.654Z,0
2017-12-12T04:58:15.609Z,0
2017-12-12T04:59:37.813Z,0
2017-12-12T05:00:59.892Z,0
2017-12-12T05:02:21.644Z,0
2017-12-12T05:03:43.603Z,0
2017-12-12T05:05:05.318Z,0
2017-12-12T05:06:27.506Z,0
2017-12-12T05:07:49.246Z,0
2017-12-12T05:09:10.995Z,0
2017-12-12T05:10:33.015Z,0
2017-12-12T05:11:54.172Z,0
2017-12-12T05:13:15.615Z,0
2017-12-12T05:14:37.086Z,0
2017-12-12T05:15:59.035Z,0
2017-12-12T05:17:20.310Z,0
2017-12-12T05:18:41.745Z,0
2017-12-12T05:20:03.445Z,0
2017-12-12T05:21:25.513Z,0
2017-12-12T05:22:47.765Z,0
2017-12-12T05:24:08.964Z,0
2017-12-12T05:25:30.375Z,0
2017-12-12T05:26:52.340Z,0
2017-12-12T05:28:14.168Z,0
2017-12-12T05:29:35.590Z,0
2017-12-12T05:30:57.843Z,0
2017-12-12T05:32:19.285Z,0
2017-12-12T05:33:41.267Z,0
2017-12-12T05:35:02.959Z,0
2017-12-12T05:36:24.918Z,0
2017-12-12T05:37:46.644Z,0
2017-12-12T05:39:07.848Z,0
2017-12-12T05:40:29.581Z,0
2017-12-12T05:41:51.333Z,0
2017-12-12T05:43:13.331Z,0
2017-12-12T05:44:34.944Z,0
2017-12-12T05:45:56.467Z,0
2017-12-12T05:47:18.181Z,0
2017-12-12T05:48:40.244Z,0
2017-12-12T05:50:02.217Z,0
2017-12-12T05:51:23.428Z,0
2017-12-12T05:52:45.406Z,0
2017-12-12T05:54:07.426Z,0
2017-12-12T05:55:29.114Z,0
2017-12-12T05:56:51.144Z,0
2017-12-12T05:58:13.102Z,0
2017-12-12T05:59:34.839Z,0
2017-12-12T06:00:56.525Z,0
2017-12-12T06:02:18.268Z,0
2017-12-12T06:03:40.255Z,0
2017-12-12T06:05:02.744Z,0
2017-12-12T06:06:24.196Z,0
2017-12-12T06:07:46.523Z,0
2017-12-12T06:09:07.980Z,0
2017-12-12T06:10:29.965Z,0
2017-12-12T06:11:51.531Z,0
2017-12-12T06:13:13.500Z,0
2017-12-12T06:14:35.594Z,0
2017-12-12T06:15:57.325Z,0
2017-12-12T06:17:19.357Z,0
2017-12-12T06:18:41.318Z,0
2017-12-12T06:20:02.746Z,0
2017-12-12T06:21:24.429Z,0
2017-12-12T06:22:46.678Z,0
2017-12-12T06:24:08.371Z,0
2017-12-12T06:25:30.200Z,0
2017-12-12T06:26:52.420Z,0
2017-12-12T06:28:13.822Z,0
2017-12-12T06:29:35.314Z,0
2017-12-12T06:30:56.997Z,0
2017-12-12T06:32:19.216Z,0
2017-12-12T06:33:41.174Z,0
2017-12-12T06:35:03.185Z,0
2017-12-12T06:36:25.144Z,0
2017-12-12T06:37:47.103Z,0
2017-12-12T06:39:08.799Z,0
2017-12-12T06:40:30.488Z,0
2017-12-12T06:41:52.829Z,0
2017-12-12T06:43:14.534Z,0
2017-12-12T06:44:36.581Z,0
2017-12-12T06:45:58.329Z,0
2017-12-12T06:47:20.284Z,0
2017-12-12T06:48:42.124Z,0
2017-12-12T06:50:04.087Z,0
2017-12-12T06:51:25.823Z,0
2017-12-12T06:52:47.518Z,0
2017-12-12T06:54:09.728Z,0
2017-12-12T06:55:31.425Z,0
2017-12-12T06:56:53.445Z,0
2017-12-12T06:58:15.466Z,0
2017-12-12T06:59:36.894Z,0
2017-12-12T07:00:58.329Z,0
2017-12-12T07:02:19.745Z,0
2017-12-12T07:03:42.135Z,0
2017-12-12T07:05:04.151Z,0
2017-12-12T07:06:26.117Z,0
2017-12-12T07:07:47.569Z,0
2017-12-12T07:09:08.994Z,0
2017-12-12T07:10:31.127Z,0
2017-12-12T07:11:52.610Z,0
2017-12-12T07:13:14.862Z,0
2017-12-12T07:14:37.093Z,0
2017-12-12T07:15:59.096Z,0
2017-12-12T07:17:21.054Z,0
2017-12-12T07:18:43.306Z,0
2017-12-12T07:20:04.996Z,0
2017-12-12T07:21:27.044Z,0
2017-12-12T07:22:48.737Z,0
2017-12-12T07:24:10.688Z,0
2017-12-12T07:25:32.377Z,0
2017-12-12T07:26:53.819Z,0
2017-12-12T07:28:15.531Z,0
2017-12-12T07:29:37.214Z,0
2017-12-12T07:30:58.746Z,0
2017-12-12T07:32:20.695Z,0
2017-12-12T07:33:42.662Z,0
2017-12-12T07:35:04.655Z,0
2017-12-12T07:36:25.906Z,0
2017-12-12T07:37:48.132Z,0
2017-12-12T07:39:10.154Z,0
2017-12-12T07:40:31.305Z,0
2017-12-12T07:41:52.474Z,0
2017-12-12T07:43:13.940Z,0
2017-12-12T07:44:35.687Z,0
2017-12-12T07:45:57.690Z,0
2017-12-12T07:47:19.925Z,0
2017-12-12T07:48:41.654Z,0
2017-12-12T07:50:03.337Z,0
2017-12-12T07:51:25.026Z,0
2017-12-12T07:52:46.763Z,5
2017-12-12T07:54:09.225Z,5
2017-12-12T07:55:30.917Z,5
2017-12-12T07:56:53.229Z,5
2017-12-12T07:58:14.844Z,5
2017-12-12T07:59:36.565Z,5
2017-12-12T08:00:57.987Z,5
2017-12-12T08:02:20.066Z,5
2017-12-12T08:03:41.557Z,5
2017-12-12T08:05:03.248Z,5
2017-12-12T08:06:25.223Z,5
2017-12-12T08:07:46.646Z,5
2017-12-12T08:09:08.076Z,5
2017-12-12T08:10:29.767Z,10
2017-12-12T08:11:51.465Z,10
2017-12-12T08:13:13.174Z,10
2017-12-12T08:14:35.443Z,10
2017-12-12T08:15:57.401Z,10
2017-12-12T08:17:19.089Z,10
2017-12-12T08:18:41.058Z,15
2017-12-12T08:20:03.124Z,15
2017-12-12T08:21:24.916Z,15
2017-12-12T08:22:47.164Z,15
2017-12-12T08:24:08.961Z,20
2017-12-12T08:25:31.196Z,20
2017-12-12T08:26:52.660Z,20
2017-12-12T08:28:14.690Z,20
2017-12-12T08:29:36.700Z,20
2017-12-12T08:30:58.408Z,20
2017-12-12T08:32:20.466Z,20
2017-12-12T08:33:42.175Z,20
2017-12-12T08:35:03.924Z,20
2017-12-12T08:36:25.632Z,20
2017-12-12T08:37:47.592Z,25
2017-12-12T08:39:09.566Z,25
2017-12-12T08:40:31.575Z,35
2017-12-12T08:41:53.274Z,35
2017-12-12T08:43:14.994Z,40
2017-12-12T08:44:36.697Z,35
2017-12-12T08:45:58.687Z,30
2017-12-12T08:47:20.917Z,30
2017-12-12T08:48:42.663Z,35
2017-12-12T08:50:04.645Z,35
2017-12-12T08:51:26.613Z,40
2017-12-12T08:52:48.315Z,45
2017-12-12T08:54:10.624Z,45
2017-12-12T08:55:32.435Z,45
2017-12-12T08:56:53.861Z,50
2017-12-12T08:58:15.586Z,50
2017-12-12T08:59:37.536Z,50
2017-12-12T09:00:59.491Z,45
2017-12-12T09:02:20.929Z,45
2017-12-12T09:03:42.659Z,40
2017-12-12T09:05:05.003Z,40
2017-12-12T09:06:26.157Z,40
2017-12-12T09:07:47.857Z,40
2017-12-12T09:09:09.339Z,40
2017-12-12T09:10:31.049Z,40
2017-12-12T09:11:53.315Z,45
2017-12-12T09:13:15.328Z,45
2017-12-12T09:14:37.288Z,45
2017-12-12T09:15:59.075Z,45
2017-12-12T09:17:21.377Z,45
2017-12-12T09:18:43.385Z,45
2017-12-12T09:20:05.445Z,50
2017-12-12T09:21:27.140Z,50
2017-12-12T09:22:48.644Z,50
2017-12-12T09:24:10.334Z,50
2017-12-12T09:25:31.797Z,60
2017-12-12T09:26:53.753Z,55
2017-12-12T09:28:15.965Z,55
2017-12-12T09:29:37.645Z,60
2017-12-12T09:30:59.364Z,65
2017-12-12T09:32:21.415Z,70
2017-12-12T09:33:42.833Z,75
2017-12-12T09:35:04.786Z,65
2017-12-12T09:36:26.804Z,70
2017-12-12T09:37:48.597Z,80
2017-12-12T09:39:10.311Z,80
2017-12-12T09:40:32.116Z,85
2017-12-12T09:41:54.066Z,90
2017-12-12T09:43:15.830Z,85
2017-12-12T09:44:37.029Z,85
2017-12-12T09:45:58.725Z,90
2017-12-12T09:47:20.486Z,85
2017-12-12T09:48:42.166Z,85
2017-12-12T09:50:04.128Z,70
2017-12-12T09:51:25.822Z,70
2017-12-12T09:52:47.627Z,65
2017-12-12T09:54:09.897Z,70
2017-12-12T09:55:32.128Z,70
2017-12-12T09:56:53.826Z,70
2017-12-12T09:58:15.245Z,80
2017-12-12T09:59:36.980Z,75
2017-12-12T10:00:59.020Z,75
2017-12-12T10:02:20.987Z,85
2017-12-12T10:03:42.740Z,95
2017-12-12T10:05:04.464Z,90
2017-12-12T10:06:26.193Z,80
2017-12-12T10:07:48.426Z,90
2017-12-12T10:09:10.665Z,95
2017-12-12T10:10:32.356Z,95
2017-12-12T10:11:54.061Z,90
2017-12-12T10:13:15.808Z,85
2017-12-12T10:14:37.550Z,90
2017-12-12T10:15:59.390Z,80
2017-12-12T10:17:20.887Z,75
2017-12-12T10:18:42.714Z,70
2017-12-12T10:20:04.437Z,70
2017-12-12T10:21:26.456Z,65
2017-12-12T10:22:47.626Z,65
2017-12-12T10:24:09.665Z,65
2017-12-12T10:25:31.079Z,65
2017-12-12T10:26:53.144Z,65
2017-12-12T10:28:14.627Z,70
2017-12-12T10:29:35.777Z,60
2017-12-12T10:30:57.765Z,60
2017-12-12T10:32:20.010Z,60
2017-12-12T10:33:42.240Z,55
2017-12-12T10:35:04.215Z,55
2017-12-12T10:36:26.450Z,50
2017-12-12T10:37:48.151Z,55
2017-12-12T10:39:10.414Z,50
2017-12-12T10:40:32.430Z,50
2017-12-12T10:41:54.400Z,45
2017-12-12T10:43:16.084Z,45
2017-12-12T10:44:37.784Z,45
2017-12-12T10:45:59.500Z,45
2017-12-12T10:47:21.556Z,45
2017-12-12T10:48:42.986Z,45
2017-12-12T10:50:05.256Z,50
2017-12-12T10:51:27.275Z,60
2017-12-12T10:52:48.961Z,60
2017-12-12T10:54:11.045Z,65
2017-12-12T10:55:33.285Z,65
2017-12-12T10:56:55.533Z,60
2017-12-12T10:58:16.754Z,60
2017-12-12T10:59:38.194Z,60
2017-12-12T11:01:00.165Z,55
2017-12-12T11:02:22.141Z,60
2017-12-12T11:03:43.846Z,60
2017-12-12T11:05:06.149Z,50
2017-12-12T11:06:27.564Z,60
2017-12-12T11:07:49.520Z,55
2017-12-12T11:09:11.222Z,45
2017-12-12T11:10:32.998Z,40
2017-12-12T11:11:55.235Z,45
2017-12-12T11:13:16.926Z,50
2017-12-12T11:14:39.175Z,45
2017-12-12T11:16:00.877Z,50
2017-12-12T11:17:22.567Z,50
2017-12-12T11:18:44.825Z,55
2017-12-12T11:20:06.788Z,55
2017-12-12T11:21:28.496Z,65
2017-12-12T11:22:50.607Z,60
2017-12-12T11:24:11.777Z,65
2017-12-12T11:25:33.206Z,80
2017-12-12T11:26:55.304Z,100
2017-12-12T11:28:17.341Z,105
2017-12-12T11:29:39.099Z,115
2017-12-12T11:31:01.028Z,115
2017-12-12T11:32:23.049Z,115
2017-12-12T11:33:45.136Z,115
2017-12-12T11:35:06.288Z,110
2017-12-12T11:36:28.537Z,95
2017-12-12T11:37:49.755Z,75
2017-12-12T11:39:11.743Z,75
2017-12-12T11:40:32.894Z,85
2017-12-12T11:41:54.345Z,100
2017-12-12T11:43:16.586Z,110
2017-12-12T11:44:38.555Z,110
2017-12-12T11:46:00.317Z,105
2017-12-12T11:47:22.536Z,100
2017-12-12T11:48:44.244Z,100
2017-12-12T11:50:06.473Z,95
2017-12-12T11:51:28.173Z,90
2017-12-12T11:52:50.137Z,95
2017-12-12T11:54:12.102Z,95
2017-12-12T11:55:33.667Z,95
2017-12-12T11:56:55.649Z,95
2017-12-12T11:58:18.077Z,95
2017-12-12T11:59:40.489Z,95
2017-12-12T12:01:02.184Z,95
2017-12-12T12:02:23.897Z,100
2017-12-12T12:03:45.328Z,100
2017-12-12T12:05:07.625Z,100
2017-12-12T12:06:29.925Z,105
2017-12-12T12:07:51.355Z,110
2017-12-12T12:09:13.575Z,110
2017-12-12T12:10:35.272Z,110
2017-12-12T12:11:56.447Z,110
2017-12-12T12:13:18.407Z,110
2017-12-12T12:14:39.874Z,110
2017-12-12T12:16:02.000Z,110
2017-12-12T12:17:24.235Z,110
2017-12-12T12:18:45.709Z,115
2017-12-12T12:20:07.447Z,115
2017-12-12T12:21:29.564Z,115
2017-12-12T12:22:51.005Z,115
2017-12-12T12:24:12.719Z,115
2017-12-12T12:25:35.087Z,115
2017-12-12T12:26:57.471Z,110
2017-12-12T12:28:19.744Z,110
2017-12-12T12:29:41.547Z,105
2017-12-12T12:31:03.506Z,105
2017-12-12T12:32:25.566Z,105
2017-12-12T12:33:47.855Z,105
2017-12-12T12:35:09.887Z,105
2017-12-12T12:36:31.155Z,100
2017-12-12T12:37:52.678Z,100
2017-12-12T12:39:14.717Z,90
2017-12-12T12:40:36.714Z,90
2017-12-12T12:41:58.685Z,90
2017-12-12T12:43:20.756Z,90
2017-12-12T12:44:42.456Z,90
2017-12-12T12:46:04.156Z,85
2017-12-12T12:47:25.902Z,80
2017-12-12T12:48:47.606Z,65
2017-12-12T12:50:09.303Z,60
2017-12-12T12:51:30.756Z,70
2017-12-12T12:52:52.479Z,75
2017-12-12T12:54:14.177Z,75
2017-12-12T12:55:36.148Z,70
2017-12-12T12:56:57.831Z,75
2017-12-12T12:58:19.592Z,75
2017-12-12T12:59:41.010Z,75
2017-12-12T13:01:02.505Z,70
2017-12-12T13:02:24.190Z,65
2017-12-12T13:03:46.162Z,65
2017-12-12T13:05:07.874Z,60
2017-12-12T13:06:29.686Z,60
2017-12-12T13:07:51.929Z,60
2017-12-12T13:09:13.756Z,55
2017-12-12T13:10:35.728Z,50
2017-12-12T13:11:57.746Z,45
2017-12-12T13:13:19.456Z,40
2017-12-12T13:14:41.182Z,35
2017-12-12T13:16:02.998Z,35
2017-12-12T13:17:24.715Z,45
2017-12-12T13:18:46.425Z,40
2017-12-12T13:20:08.136Z,40
2017-12-12T13:21:29.559Z,40
2017-12-12T13:22:51.257Z,50
2017-12-12T13:24:13.478Z,50
2017-12-12T13:25:35.186Z,55
2017-12-12T13:26:56.886Z,50
2017-12-12T13:28:18.338Z,55
2017-12-12T13:29:40.321Z,50
2017-12-12T13:31:02.036Z,50
2017-12-12T13:32:24.161Z,50
2017-12-12T13:33:46.500Z,50
2017-12-12T13:35:07.941Z,60
2017-12-12T13:36:30.350Z,60
2017-12-12T13:37:52.072Z,60
2017-12-12T13:39:13.799Z,60
2017-12-12T13:40:35.866Z,60
2017-12-12T13:41:57.575Z,60
2017-12-12T13:43:19.566Z,60
2017-12-12T13:44:40.995Z,60
2017-12-12T13:46:02.783Z,60
2017-12-12T13:47:23.939Z,60
2017-12-12T13:48:45.912Z,55
2017-12-12T13:50:07.622Z,55
2017-12-12T13:51:29.714Z,55
2017-12-12T13:52:51.752Z,50
2017-12-12T13:54:13.197Z,45
2017-12-12T13:55:35.468Z,45
2017-12-12T13:56:57.218Z,50
2017-12-12T13:58:19.455Z,45
2017-12-12T13:59:41.811Z,45
2017-12-12T14:01:04.104Z,45
2017-12-12T14:02:26.091Z,50
2017-12-12T14:03:47.816Z,50
2017-12-12T14:05:09.773Z,50
2017-12-12T14:06:31.809Z,45
2017-12-12T14:07:53.261Z,45
2017-12-12T14:09:15.599Z,40
2017-12-12T14:10:37.309Z,35
2017-12-12T14:11:58.743Z,30
2017-12-12T14:13:20.766Z,30
2017-12-12T14:14:42.458Z,30
2017-12-12T14:16:03.629Z,30
2017-12-12T14:17:25.436Z,25
2017-12-12T14:18:47.024Z,25
2017-12-12T14:20:08.792Z,25
2017-12-12T14:21:30.335Z,25
2017-12-12T14:22:52.357Z,25
2017-12-12T14:24:14.416Z,25
2017-12-12T14:25:36.193Z,25
2017-12-12T14:26:57.623Z,25
2017-12-12T14:28:19.663Z,20
2017-12-12T14:29:41.635Z,20
2017-12-12T14:31:03.352Z,20
2017-12-12T14:32:25.615Z,20
2017-12-12T14:33:47.316Z,20
2017-12-12T14:35:09.012Z,20
2017-12-12T14:36:30.989Z,20
2017-12-12T14:37:52.962Z,20
2017-12-12T14:39:14.927Z,20
2017-12-12T14:40:37.264Z,15
2017-12-12T14:41:59.245Z,15
2017-12-12T14:43:21.533Z,15
2017-12-12T14:44:43.564Z,10
2017-12-12T14:46:05.587Z,10
2017-12-12T14:47:27.290Z,10
2017-12-12T14:48:49.367Z,10
2017-12-12T14:50:11.497Z,10
2017-12-12T14:51:33.467Z,10
2017-12-12T14:52:55.162Z,5
2017-12-12T14:54:17.134Z,5
2017-12-12T14:55:38.884Z,5
2017-12-12T14:57:01.130Z,5
2017-12-12T14:58:23.218Z,5
2017-12-12T14:59:45.247Z,5
2017-12-12T15:01:06.730Z,5
2017-12-12T15:02:29.004Z,5
2017-12-12T15:03:51.373Z,0
2017-12-12T15:05:13.522Z,0
2017-12-12T15:06:35.243Z,0
2017-12-12T15:07:56.695Z,0
2017-12-12T15:09:18.917Z,0
2017-12-12T15:10:40.636Z,0
2017-12-12T15:12:02.137Z,0
2017-12-12T15:13:24.115Z,0
2017-12-12T15:14:45.318Z,0
2017-12-12T15:16:07.666Z,0
2017-12-12T15:17:29.655Z,0
2017-12-12T15:18:51.885Z,0
2017-12-12T15:20:13.929Z,0
2017-12-12T15:21:36.236Z,0
2017-12-12T15:22:58.272Z,0
2017-12-12T15:24:20.256Z,0
2017-12-12T15:25:41.989Z,0
2017-12-12T15:27:04.196Z,0
2017-12-12T15:28:25.926Z,0
2017-12-12T15:29:47.641Z,0
2017-12-12T15:31:09.369Z,0
2017-12-12T15:32:31.369Z,0
2017-12-12T15:33:53.074Z,0
2017-12-12T15:35:15.095Z,0
2017-12-12T15:36:37.209Z,0
2017-12-12T15:37:59.174Z,0
2017-12-12T15:39:20.593Z,0
2017-12-12T15:40:42.290Z,0
2017-12-12T15:42:03.854Z,0
2017-12-12T15:43:26.156Z,0
2017-12-12T15:44:47.615Z,0
2017-12-12T15:46:09.679Z,0
2017-12-12T15:47:31.655Z,0
2017-12-12T15:48:54.044Z,0
2017-12-12T15:50:16.035Z,0
2017-12-12T15:51:38.224Z,0
2017-12-12T15:53:00.299Z,0
2017-12-12T15:54:22.363Z,0
2017-12-12T15:55:44.100Z,0
2017-12-12T15:57:05.895Z,0
2017-12-12T15:58:28.183Z,0
2017-12-12T15:59:50.186Z,0
2017-12-12T16:01:11.955Z,0
2017-12-12T16:02:33.960Z,0
2017-12-12T16:03:55.962Z,0
2017-12-12T16:05:17.707Z,0
2017-12-12T16:06:39.674Z,0
2017-12-12T16:08:01.369Z,0
2017-12-12T16:09:23.699Z,0
2017-12-12T16:10:45.983Z,0
2017-12-12T16:12:07.532Z,0
2017-12-12T16:13:29.034Z,0
2017-12-12T16:14:50.496Z,0
2017-12-12T16:16:12.960Z,0
2017-12-12T16:17:35.345Z,0
2017-12-12T16:18:57.327Z,0
2017-12-12T16:20:19.217Z,0
2017-12-12T16:21:41.226Z,0
2017-12-12T16:23:03.532Z,0
2017-12-12T16:24:25.246Z,0
2017-12-12T16:25:46.979Z,0
2017-12-12T16:27:09.081Z,0
2017-12-12T16:28:31.325Z,0
2017-12-12T16:29:53.335Z,0
2017-12-12T16:31:15.407Z,0
2017-12-12T16:32:37.369Z,0
2017-12-12T16:33:59.722Z,0
2017-12-12T16:35:21.983Z,0
2017-12-12T16:36:43.439Z,0
2017-12-12T16:38:05.183Z,0
2017-12-12T16:39:27.206Z,0
2017-12-12T16:40:48.974Z,0
2017-12-12T16:42:10.942Z,0
2017-12-12T16:43:33.165Z,0
2017-12-12T16:44:55.036Z,0
2017-12-12T16:46:16.757Z,0
2017-12-12T16:47:38.184Z,0
2017-12-12T16:48:59.878Z,0
2017-12-12T16:50:21.944Z,0
2017-12-12T16:51:44.044Z,0
2017-12-12T16:53:05.808Z,0
2017-12-12T16:54:27.796Z,0
2017-12-12T16:55:50.166Z,0
2017-12-12T16:57:11.904Z,0
2017-12-12T16:58:33.609Z,0
2017-12-12T16:59:55.606Z,0
2017-12-12T17:01:17.601Z,0
2017-12-12T17:02:39.707Z,0
2017-12-12T17:04:01.836Z,0
2017-12-12T17:05:23.378Z,0
2017-12-12T17:06:45.226Z,0
2017-12-12T17:08:07.233Z,0
2017-12-12T17:09:28.965Z,0
2017-12-12T17:10:51.273Z,0
2017-12-12T17:12:13.014Z,0
2017-12-12T17:13:35.255Z,0
2017-12-12T17:14:57.015Z,0
2017-12-12T17:16:19.163Z,0
2017-12-12T17:17:40.322Z,0
2017-12-12T17:19:02.323Z,0
2017-12-12T17:20:24.130Z,0
2017-12-12T17:21:46.144Z,0
2017-12-12T17:23:07.574Z,0
2017-12-12T17:24:29.215Z,0
2017-12-12T17:25:51.307Z,0
2017-12-12T17:27:13.036Z,0
2017-12-12T17:28:35.050Z,0
2017-12-12T17:29:57.390Z,0
2017-12-12T17:31:19.511Z,0
2017-12-12T17:32:41.519Z,0
2017-12-12T17:34:03.246Z,0
2017-12-12T17:35:24.696Z,0
2017-12-12T17:36:46.436Z,0
2017-12-12T17:38:08.145Z,0
2017-12-12T17:39:29.909Z,0
2017-12-12T17:40:51.388Z,0
2017-12-12T17:42:13.698Z,0
2017-12-12T17:43:36.239Z,0
2017-12-12T17:44:58.261Z,0
2017-12-12T17:46:20.550Z,0
2017-12-12T17:47:42.566Z,0
2017-12-12T17:49:04.438Z,0
2017-12-12T17:50:26.704Z,0
2017-12-12T17:51:48.543Z,0
2017-12-12T17:53:10.551Z,0
2017-12-12T17:54:32.642Z,0
2017-12-12T17:55:54.614Z,0
2017-12-12T17:57:17.033Z,0
2017-12-12T17:58:39.240Z,0
2017-12-12T18:00:01.574Z,0
2017-12-12T18:01:23.544Z,0
2017-12-12T18:02:45.282Z,0
2017-12-12T18:04:07.615Z,0
2017-12-12T18:05:29.376Z,0
2017-12-12T18:06:51.380Z,0
2017-12-12T18:08:13.687Z,0
2017-12-12T18:09:36.065Z,0
2017-12-12T18:10:58.063Z,0
2017-12-12T18:12:20.263Z,0
2017-12-12T18:13:42.594Z,0
2017-12-12T18:15:04.058Z,0
2017-12-12T18:16:26.345Z,0
2017-12-12T18:17:48.432Z,0
2017-12-12T18:19:10.521Z,0
2017-12-12T18:20:32.624Z,0
2017-12-12T18:21:54.362Z,0
2017-12-12T18:23:16.636Z,0
2017-12-12T18:24:38.967Z,0
2017-12-12T18:26:01.239Z,0
2017-12-12T18:27:23.280Z,0
2017-12-12T18:28:45.517Z,0
2017-12-12T18:30:06.757Z,0
2017-12-12T18:31:28.755Z,0
2017-12-12T18:32:51.014Z,0
2017-12-12T18:34:13.031Z,0
2017-12-12T18:35:34.490Z,0
2017-12-12T18:36:55.994Z,0
2017-12-12T18:38:17.718Z,0
2017-12-12T18:39:40.012Z,0
2017-12-12T18:41:02.392Z,0
2017-12-12T18:42:24.754Z,0
2017-12-12T18:43:46.845Z,0
2017-12-12T18:45:08.856Z,0
2017-12-12T18:46:31.153Z,0
2017-12-12T18:47:53.485Z,0
2017-12-12T18:49:15.516Z,0
2017-12-12T18:50:37.357Z,0
2017-12-12T18:51:59.365Z,0
2017-12-12T18:53:21.210Z,0
2017-12-12T18:54:43.508Z,0
2017-12-12T18:56:05.569Z,0
2017-12-12T18:57:28.266Z,0
2017-12-12T18:58:50.101Z,0
2017-12-12T19:00:12.434Z,0
2017-12-12T19:01:34.707Z,0
2017-12-12T19:02:56.542Z,0
2017-12-12T19:04:18.822Z,0
2017-12-12T19:05:40.914Z,0
2017-12-12T19:07:03.268Z,0
2017-12-12T19:08:25.584Z,0
2017-12-12T19:09:47.658Z,0
2017-12-12T19:11:09.713Z,0
2017-12-12T19:12:31.610Z,0
2017-12-12T19:13:53.636Z,0
2017-12-12T19:15:16.024Z,0
2017-12-12T19:16:38.125Z,0
2017-12-12T19:18:00.427Z,0
2017-12-12T19:19:22.815Z,0
2017-12-12T19:20:44.819Z,0
2017-12-12T19:22:06.287Z,0
2017-12-12T19:23:28.629Z,0
2017-12-12T19:24:50.428Z,0
2017-12-12T19:26:12.721Z,0
2017-12-12T19:27:34.876Z,0
2017-12-12T19:28:57.205Z,0
2017-12-12T19:30:19.511Z,0
2017-12-12T19:31:41.560Z,0
2017-12-12T19:33:03.855Z,0
2017-12-12T19:34:26.167Z,0
2017-12-12T19:35:48.548Z,0
2017-12-12T19:37:10.854Z,0
2017-12-12T19:38:32.723Z,0
2017-12-12T19:39:54.477Z,0
2017-12-12T19:41:16.245Z,0
2017-12-12T19:42:38.317Z,0
2017-12-12T19:44:00.064Z,0
2017-12-12T19:45:22.181Z,0
2017-12-12T19:46:44.612Z,0
2017-12-12T19:48:06.980Z,0
2017-12-12T19:49:29.304Z,0
2017-12-12T19:50:51.541Z,0
2017-12-12T19:52:13.474Z,0
2017-12-12T19:53:35.972Z,0